Time;durP1;ratioP1;P1;durP2;ratioP2;P2;SDS_P1;SDS_P2;PMS_P1;PMS_P2;Temp;Humidity;BMP_temperature;BMP_pressure;BME280_temperature;BME280_humidity;BME280_pressure;Samples;Min_cycle;Max_cycle;Signal;HPM_P1;HPM_P2
2022/05/12 00:00:18;;;;;;;0.68;0.30;;;13.60;71.90;;;;;;5113629;28;20104;-72
2022/05/12 00:02:44;;;;;;;0.47;0.22;;;13.50;71.90;;;;;;5095582;28;20489;-71
2022/05/12 00:05:11;;;;;;;0.80;0.30;;;13.50;72.00;;;;;;5095480;28;20127;-73
2022/05/12 00:07:37;;;;;;;0.57;0.28;;;13.50;72.00;;;;;;5113381;28;20043;-73
2022/05/12 00:10:03;;;;;;;0.47;0.32;;;13.40;72.00;;;;;;5114026;28;20036;-73
2022/05/12 00:12:29;;;;;;;1.05;0.30;;;13.40;72.00;;;;;;5095828;28;20077;-73
2022/05/12 00:14:55;;;;;;;0.17;0.17;;;13.30;71.90;;;;;;5113251;28;20085;-73
2022/05/12 00:17:21;;;;;;;0.65;0.30;;;13.30;71.90;;;;;;5095390;28;20038;-73
2022/05/12 00:19:47;;;;;;;0.10;0.10;;;13.30;71.90;;;;;;5078114;28;20130;-73
2022/05/12 00:22:12;;;;;;;0.77;0.20;;;13.20;71.90;;;;;;5061499;28;20537;-72
2022/05/12 00:24:38;;;;;;;0.80;0.30;;;13.20;72.10;;;;;;5113396;28;20088;-72
2022/05/12 00:27:07;;;;;;;0.25;0.20;;;13.10;72.10;;;;;;5113379;28;20040;-74
2022/05/12 00:29:33;;;;;;;0.80;0.40;;;13.10;72.20;;;;;;5111374;28;20039;-73
2022/05/12 00:31:58;;;;;;;1.08;0.30;;;13.10;72.20;;;;;;5094890;28;20044;-73
2022/05/12 00:34:24;;;;;;;0.77;0.20;;;13.00;72.20;;;;;;5113572;28;20092;-73
2022/05/12 00:36:50;;;;;;;0.55;0.30;;;13.00;72.30;;;;;;5113116;28;20086;-73
2022/05/12 00:39:16;;;;;;;0.57;0.20;;;13.00;72.30;;;;;;5094994;28;20524;-72
2022/05/12 00:41:42;;;;;;;0.13;0.13;;;12.90;72.30;;;;;;5113346;28;20401;-71
2022/05/12 00:44:11;;;;;;;0.80;0.20;;;12.90;72.30;;;;;;5094725;28;20036;-72
2022/05/12 00:46:41;;;;;;;0.20;0.20;;;12.90;72.30;;;;;;5111348;28;20403;-72
2022/05/12 00:49:23;;;;;;;0.10;0.10;;;12.80;72.30;;;;;;5094614;28;20127;-72
2022/05/12 00:52:06;;;;;;;0.20;0.20;;;12.70;72.30;;;;;;5112804;28;20040;-72
2022/05/12 00:54:42;;;;;;;0.10;0.10;;;12.70;72.40;;;;;;5112672;28;20036;-72
2022/05/12 00:57:10;;;;;;;0.10;0.10;;;12.70;72.50;;;;;;5113327;28;20119;-73
2022/05/12 00:59:37;;;;;;;0.40;0.25;;;12.70;72.60;;;;;;5112851;28;20047;-72
2022/05/12 01:02:08;;;;;;;0.57;0.28;;;12.60;72.60;;;;;;5112593;28;20051;-72
2022/05/12 01:04:34;;;;;;;0.25;0.20;;;12.60;72.70;;;;;;5112787;28;20554;-73
2022/05/12 01:07:00;;;;;;;0.10;0.10;;;12.60;72.70;;;;;;5112603;28;20126;-73
2022/05/12 01:09:27;;;;;;;1.05;0.30;;;12.50;72.80;;;;;;5094781;28;20043;-73
2022/05/12 01:11:54;;;;;;;0.20;0.20;;;12.60;72.90;;;;;;5112489;28;20074;-72
2022/05/12 01:14:20;;;;;;;0.32;0.20;;;12.50;72.80;;;;;;5061991;28;20095;-72
2022/05/12 01:16:50;;;;;;;0.20;0.20;;;12.50;72.80;;;;;;5077966;28;20066;-72
2022/05/12 01:19:20;;;;;;;0.30;0.20;;;12.40;72.80;;;;;;5094890;28;20043;-72
2022/05/12 01:21:47;;;;;;;0.35;0.20;;;12.40;72.90;;;;;;5094179;28;20044;-72
2022/05/12 01:24:14;;;;;;;0.43;0.20;;;12.40;72.90;;;;;;5094115;28;20035;-72
2022/05/12 01:26:40;;;;;;;0.20;0.20;;;12.30;72.90;;;;;;5112543;28;20057;-72
2022/05/12 01:29:07;;;;;;;0.20;0.20;;;12.30;72.90;;;;;;5112377;28;20116;-72
2022/05/12 01:31:34;;;;;;;1.10;0.15;;;12.40;73.00;;;;;;5112731;28;20089;-72
2022/05/12 01:34:02;;;;;;;0.40;0.20;;;12.30;73.00;;;;;;5094796;28;20141;-72
2022/05/12 01:36:28;;;;;;;0.50;0.20;;;12.20;73.10;;;;;;5112330;28;20510;-72
2022/05/12 01:38:54;;;;;;;0.70;0.30;;;12.20;73.10;;;;;;5112906;28;20071;-72
2022/05/12 01:41:20;;;;;;;0.15;0.10;;;12.20;73.20;;;;;;5112811;28;20044;-72
2022/05/12 01:43:46;;;;;;;0.25;0.15;;;12.10;73.20;;;;;;5112549;28;20359;-71
2022/05/12 01:46:12;;;;;;;0.10;0.10;;;12.10;73.40;;;;;;5112952;28;20034;-71
2022/05/12 01:48:38;;;;;;;0.22;0.20;;;12.00;73.40;;;;;;5112227;28;20397;-71
2022/05/12 01:51:06;;;;;;;0.30;0.10;;;11.90;73.40;;;;;;5115741;28;20495;-71
2022/05/12 01:53:32;;;;;;;0.43;0.10;;;12.00;73.60;;;;;;5097420;28;20039;-71
2022/05/12 01:55:59;;;;;;;0.10;0.10;;;12.00;73.70;;;;;;5115765;28;20036;-71
2022/05/12 01:58:25;;;;;;;0.20;0.20;;;11.90;73.80;;;;;;5115801;28;20130;-72
2022/05/12 02:00:51;;;;;;;0.20;0.20;;;11.80;73.80;;;;;;5115378;28;20043;-72
2022/05/12 02:03:17;;;;;;;0.35;0.20;;;11.80;73.90;;;;;;5115625;28;20442;-72
2022/05/12 02:05:44;;;;;;;0.20;0.20;;;11.70;73.80;;;;;;5115364;28;20032;-72
2022/05/12 02:08:12;;;;;;;0.47;0.20;;;11.80;74.00;;;;;;5097250;28;20043;-72
2022/05/12 02:10:40;;;;;;;0.10;0.10;;;11.70;73.90;;;;;;5097910;28;20043;-72
2022/05/12 02:13:08;;;;;;;0.17;0.17;;;11.70;74.00;;;;;;5115966;28;20081;-72
2022/05/12 02:15:35;;;;;;;0.20;0.20;;;11.60;73.90;;;;;;5097298;28;20099;-72
2022/05/12 02:18:00;;;;;;;0.20;0.20;;;11.70;74.00;;;;;;5115511;28;20043;-72
2022/05/12 02:20:27;;;;;;;0.22;0.17;;;11.60;74.00;;;;;;5115303;28;20047;-72
2022/05/12 02:22:53;;;;;;;0.98;0.30;;;11.60;74.10;;;;;;5115315;28;20061;-72
2022/05/12 02:25:19;;;;;;;0.25;0.20;;;11.50;74.10;;;;;;5096991;28;20497;-72
2022/05/12 02:27:46;;;;;;;0.20;0.20;;;11.50;74.10;;;;;;5115720;28;20044;-71
2022/05/12 02:30:19;;;;;;;0.17;0.17;;;11.50;74.10;;;;;;5115297;28;20044;-71
2022/05/12 02:32:45;;;;;;;0.30;0.28;;;11.50;74.20;;;;;;5097281;28;20063;-72
2022/05/12 02:35:12;;;;;;;0.75;0.30;;;11.40;74.20;;;;;;5079802;28;20081;-72
2022/05/12 02:37:39;;;;;;;0.10;0.10;;;11.40;74.20;;;;;;5115142;28;20459;-71
2022/05/12 02:40:06;;;;;;;0.20;0.20;;;11.40;74.40;;;;;;5096700;28;20404;-72
2022/05/12 02:42:31;;;;;;;0.45;0.20;;;11.40;74.40;;;;;;5114982;28;20042;-72
2022/05/12 02:44:57;;;;;;;0.20;0.20;;;11.40;74.40;;;;;;5114868;28;20039;-72
2022/05/12 02:47:23;;;;;;;0.35;0.35;;;11.40;74.40;;;;;;5114772;28;20031;-72
2022/05/12 02:49:49;;;;;;;0.32;0.20;;;11.40;74.40;;;;;;5115037;28;20426;-72
2022/05/12 02:52:14;;;;;;;1.05;0.32;;;11.30;74.30;;;;;;5096532;28;20084;-72
2022/05/12 02:54:40;;;;;;;0.30;0.30;;;11.30;74.40;;;;;;5114800;28;20039;-72
2022/05/12 02:57:06;;;;;;;0.88;0.30;;;11.30;74.40;;;;;;5115017;28;20035;-72
2022/05/12 02:59:32;;;;;;;0.20;0.20;;;11.30;74.40;;;;;;5115063;28;20044;-72
2022/05/12 03:01:58;;;;;;;0.38;0.30;;;11.30;74.50;;;;;;5114400;28;20035;-71
2022/05/12 03:04:24;;;;;;;0.25;0.25;;;11.30;74.50;;;;;;5114531;28;20031;-72
2022/05/12 03:06:51;;;;;;;0.30;0.30;;;11.30;74.50;;;;;;5114464;28;20062;-72
2022/05/12 03:09:17;;;;;;;0.20;0.20;;;11.30;74.50;;;;;;5115078;28;20038;-72
2022/05/12 03:11:43;;;;;;;0.35;0.20;;;11.30;74.50;;;;;;5114488;28;20079;-72
2022/05/12 03:14:09;;;;;;;0.20;0.20;;;11.30;74.60;;;;;;5114436;28;20055;-71
2022/05/12 03:16:35;;;;;;;0.30;0.30;;;11.30;74.60;;;;;;5114910;28;20515;-72
2022/05/12 03:19:01;;;;;;;0.35;0.30;;;11.20;74.50;;;;;;5114460;28;20067;-71
2022/05/12 03:21:26;;;;;;;0.20;0.20;;;11.20;74.60;;;;;;5114290;28;20067;-72
2022/05/12 03:23:53;;;;;;;0.50;0.25;;;11.20;74.70;;;;;;5114305;28;20090;-72
2022/05/12 03:26:19;;;;;;;0.28;0.28;;;11.20;74.80;;;;;;5096108;28;20043;-72
2022/05/12 03:28:45;;;;;;;0.63;0.50;;;11.20;74.80;;;;;;5114757;28;20385;-72
2022/05/12 03:31:12;;;;;;;0.77;0.40;;;11.10;74.80;;;;;;5114313;28;20432;-72
2022/05/12 03:33:38;;;;;;;0.30;0.30;;;11.10;74.80;;;;;;5114698;28;20051;-72
2022/05/12 03:36:07;;;;;;;0.20;0.20;;;11.10;74.90;;;;;;5114317;28;20105;-71
2022/05/12 03:38:33;;;;;;;0.30;0.30;;;11.10;75.00;;;;;;5114639;28;20380;-72
2022/05/12 03:40:59;;;;;;;0.30;0.30;;;11.10;75.70;;;;;;5114178;28;20043;-72
2022/05/12 03:46:09;;;;;;;0.10;0.10;;;11.00;75.10;;;;;;5114132;28;20500;-72
2022/05/12 03:48:36;;;;;;;0.82;0.40;;;11.00;75.10;;;;;;5113971;28;20032;-72
2022/05/12 03:51:03;;;;;;;0.32;0.30;;;11.00;75.20;;;;;;5113822;28;20074;-72
2022/05/12 03:53:30;;;;;;;0.40;0.40;;;11.00;75.20;;;;;;5114006;28;20081;-72
2022/05/12 03:55:56;;;;;;;0.40;0.40;;;11.00;75.20;;;;;;5095554;28;20069;-72
2022/05/12 03:58:22;;;;;;;0.13;0.13;;;10.90;75.20;;;;;;5096007;28;20031;-72
2022/05/12 04:00:49;;;;;;;0.30;0.30;;;10.90;75.30;;;;;;5113797;28;20374;-72
2022/05/12 04:03:15;;;;;;;0.30;0.30;;;10.90;75.40;;;;;;5113925;28;20039;-72
2022/05/12 04:05:41;;;;;;;0.32;0.30;;;10.90;75.40;;;;;;5114106;28;20035;-72
2022/05/12 04:08:08;;;;;;;0.85;0.50;;;10.90;75.40;;;;;;5114596;28;20118;-72
2022/05/12 04:10:33;;;;;;;0.55;0.30;;;10.90;75.50;;;;;;5113913;28;20040;-72
2022/05/12 04:12:59;;;;;;;0.70;0.50;;;10.90;75.50;;;;;;5113798;28;20404;-72
2022/05/12 04:15:25;;;;;;;0.20;0.20;;;10.90;75.50;;;;;;5114028;28;20062;-72
2022/05/12 04:17:57;;;;;;;1.83;0.60;;;10.90;75.50;;;;;;5113680;28;20058;-72
2022/05/12 04:20:24;;;;;;;0.32;0.30;;;10.90;75.60;;;;;;5113570;28;20401;-72
2022/05/12 04:22:49;;;;;;;1.02;0.40;;;10.90;75.60;;;;;;5114265;28;20032;-72
2022/05/12 04:25:16;;;;;;;0.25;0.25;;;10.90;75.60;;;;;;5113548;28;20032;-72
2022/05/12 04:27:42;;;;;;;0.90;0.30;;;10.90;75.60;;;;;;5095128;28;20420;-73
2022/05/12 04:30:11;;;;;;;0.22;0.22;;;10.90;75.60;;;;;;5113483;28;20046;-73
2022/05/12 04:32:37;;;;;;;0.38;0.38;;;10.90;75.60;;;;;;5113993;28;20054;-72
2022/05/12 04:35:12;;;;;;;1.40;0.30;;;10.90;75.60;;;;;;5095374;28;20042;-72
2022/05/12 04:37:51;;;;;;;0.25;0.10;;;10.90;76.30;;;;;;5113238;28;20066;-72
2022/05/12 04:40:22;;;;;;;0.20;0.20;;;11.00;75.70;;;;;;5097041;28;20048;-72
2022/05/12 04:42:50;;;;;;;0.30;0.30;;;11.00;75.60;;;;;;5111876;28;20063;-72
2022/05/12 04:45:17;;;;;;;0.20;0.20;;;11.00;75.60;;;;;;5113301;28;20122;-72
2022/05/12 04:47:44;;;;;;;1.17;0.20;;;11.00;75.60;;;;;;5094825;28;20374;-72
2022/05/12 04:50:14;;;;;;;0.20;0.20;;;11.00;75.60;;;;;;5095515;28;20126;-72
2022/05/12 04:52:39;;;;;;;0.20;0.20;;;11.00;75.70;;;;;;5113342;28;20047;-72
2022/05/12 04:55:06;;;;;;;0.13;0.13;;;11.00;75.60;;;;;;5113347;28;20071;-72
2022/05/12 04:57:37;;;;;;;0.95;0.30;;;11.10;75.70;;;;;;5094835;28;20370;-72
2022/05/12 05:00:05;;;;;;;0.20;0.20;;;11.10;75.70;;;;;;5111375;28;20072;-72
2022/05/12 05:02:30;;;;;;;0.10;0.10;;;11.10;75.60;;;;;;5113522;28;20078;-71
2022/05/12 05:04:56;;;;;;;0.30;0.30;;;11.20;75.60;;;;;;5113186;28;20075;-71
2022/05/12 05:07:22;;;;;;;0.43;0.30;;;11.20;75.60;;;;;;5112952;28;20027;-71
2022/05/12 05:09:48;;;;;;;0.17;0.17;;;11.20;75.60;;;;;;5112943;28;20067;-71
2022/05/12 05:12:14;;;;;;;0.30;0.30;;;11.20;75.50;;;;;;5113213;28;20108;-70
2022/05/12 05:14:39;;;;;;;1.30;0.40;;;11.30;75.50;;;;;;5112774;28;20088;-71
2022/05/12 05:17:05;;;;;;;0.30;0.30;;;11.30;75.50;;;;;;5113019;28;20036;-71
2022/05/12 05:19:31;;;;;;;0.30;0.30;;;11.40;75.50;;;;;;5112805;28;20043;-71
2022/05/12 05:21:57;;;;;;;0.50;0.25;;;11.40;75.40;;;;;;5113032;28;20055;-72
2022/05/12 05:24:23;;;;;;;0.32;0.32;;;11.50;75.50;;;;;;5111800;28;20059;-71
2022/05/12 05:26:49;;;;;;;0.40;0.40;;;11.50;75.40;;;;;;5112788;28;20088;-72
2022/05/12 05:29:14;;;;;;;0.50;0.40;;;11.50;75.40;;;;;;5112594;28;20035;-72
2022/05/12 05:31:41;;;;;;;0.57;0.40;;;11.60;75.30;;;;;;5112684;28;20060;-71
2022/05/12 05:34:09;;;;;;;0.30;0.30;;;11.60;75.30;;;;;;5112463;28;20434;-71
2022/05/12 05:36:35;;;;;;;0.30;0.30;;;11.70;75.30;;;;;;5112696;28;20050;-71
2022/05/12 05:39:01;;;;;;;0.40;0.30;;;11.70;75.30;;;;;;5112342;28;20040;-71
2022/05/12 05:41:26;;;;;;;1.10;0.50;;;11.70;75.30;;;;;;5077208;28;20120;-71
2022/05/12 05:43:53;;;;;;;0.70;0.40;;;11.80;75.30;;;;;;5112323;28;20032;-71
2022/05/12 05:46:18;;;;;;;0.38;0.38;;;11.80;75.30;;;;;;5112991;28;20044;-71
2022/05/12 05:48:46;;;;;;;0.73;0.40;;;11.90;75.30;;;;;;5112441;28;20054;-71
2022/05/12 05:53:49;;;;;;;0.70;0.38;;;11.90;75.30;;;;;;5112213;28;20058;-71
2022/05/12 05:56:15;;;;;;;1.10;0.50;;;12.00;75.30;;;;;;5094594;28;20142;-71
2022/05/12 05:58:43;;;;;;;0.80;0.50;;;12.00;75.30;;;;;;5112214;28;20140;-71
2022/05/12 06:01:09;;;;;;;0.85;0.50;;;12.10;75.40;;;;;;5112179;28;20040;-71
2022/05/12 06:03:35;;;;;;;0.30;0.30;;;12.10;75.30;;;;;;5093909;28;20032;-71
2022/05/12 06:06:01;;;;;;;1.40;0.60;;;12.20;75.30;;;;;;5112090;28;20043;-71
2022/05/12 06:08:27;;;;;;;1.83;0.60;;;12.20;75.30;;;;;;5112011;28;20063;-72
2022/05/12 06:10:53;;;;;;;1.55;0.60;;;12.20;75.20;;;;;;5110249;28;20119;-72
2022/05/12 06:13:19;;;;;;;1.30;0.70;;;12.40;75.30;;;;;;5112235;28;20046;-72
2022/05/12 06:15:45;;;;;;;1.50;0.70;;;12.40;75.30;;;;;;5112133;28;20127;-72
2022/05/12 06:18:14;;;;;;;0.40;0.40;;;12.40;75.20;;;;;;5077756;28;20040;-72
2022/05/12 06:20:41;;;;;;;0.30;0.30;;;12.50;75.20;;;;;;5111805;28;20043;-72
2022/05/12 06:23:09;;;;;;;2.17;0.50;;;12.60;75.20;;;;;;5112034;28;20027;-72
2022/05/12 06:25:35;;;;;;;2.15;0.55;;;12.60;75.10;;;;;;5112182;28;20093;-72
2022/05/12 06:28:01;;;;;;;0.60;0.50;;;12.70;75.10;;;;;;5111690;28;20401;-72
2022/05/12 06:30:29;;;;;;;0.93;0.43;;;12.80;75.10;;;;;;5112476;28;20035;-74
2022/05/12 06:32:56;;;;;;;0.60;0.50;;;12.80;75.00;;;;;;5111866;28;20148;-74
2022/05/12 06:35:23;;;;;;;0.75;0.65;;;12.90;75.00;;;;;;5094753;28;20032;-74
2022/05/12 06:37:49;;;;;;;1.05;0.57;;;13.00;74.90;;;;;;5115621;28;20070;-73
2022/05/12 06:40:17;;;;;;;1.40;0.80;;;13.00;74.80;;;;;;5115227;28;20035;-74
2022/05/12 06:42:43;;;;;;;0.40;0.40;;;13.10;74.70;;;;;;5063517;28;20039;-74
2022/05/12 06:45:20;;;;;;;0.88;0.40;;;13.30;74.70;;;;;;5097725;28;20043;-74
2022/05/12 06:47:48;;;;;;;0.40;0.40;;;13.20;74.60;;;;;;5115384;28;20046;-75
2022/05/12 06:50:15;;;;;;;1.42;0.68;;;13.30;74.50;;;;;;5096963;28;20051;-76
2022/05/12 06:52:43;;;;;;;0.50;0.50;;;13.40;74.60;;;;;;5094941;28;20043;-74
2022/05/12 06:55:09;;;;;;;0.75;0.50;;;13.40;74.50;;;;;;5115192;28;20039;-74
2022/05/12 06:57:35;;;;;;;1.35;0.60;;;13.50;74.50;;;;;;5115420;28;20094;-75
2022/05/12 07:00:01;;;;;;;1.13;0.60;;;13.60;74.40;;;;;;5096978;28;20505;-73
2022/05/12 07:02:27;;;;;;;1.05;0.70;;;13.60;74.20;;;;;;5115614;28;20122;-74
2022/05/12 07:04:53;;;;;;;0.82;0.60;;;13.70;74.20;;;;;;5079941;28;20135;-73
2022/05/12 07:07:20;;;;;;;0.50;0.50;;;13.80;74.10;;;;;;5114676;28;20064;-73
2022/05/12 07:09:47;;;;;;;1.25;0.68;;;13.90;74.80;;;;;;5115087;28;20488;-73
2022/05/12 07:12:13;;;;;;;0.90;0.60;;;14.00;73.90;;;;;;5114869;28;20047;-74
2022/05/12 07:14:39;;;;;;;0.70;0.50;;;14.20;73.60;;;;;;5114857;28;20066;-74
2022/05/12 07:17:05;;;;;;;1.15;0.47;;;14.30;73.30;;;;;;5114926;28;20036;-74
2022/05/12 07:19:33;;;;;;;0.68;0.50;;;14.50;73.20;;;;;;5062954;28;20036;-74
2022/05/12 07:27:24;;;;;;;1.48;0.80;;;14.70;72.70;;;;;;5114402;28;20461;-74
2022/05/12 07:29:51;;;;;;;1.27;0.60;;;14.80;72.80;;;;;;5114949;28;20122;-74
2022/05/12 07:32:17;;;;;;;0.68;0.52;;;15.00;72.80;;;;;;5114515;28;20035;-75
2022/05/12 07:34:43;;;;;;;1.10;0.50;;;15.10;72.50;;;;;;5096056;28;20043;-75
2022/05/12 07:37:09;;;;;;;1.35;0.60;;;15.30;72.20;;;;;;5096038;28;20046;-76
2022/05/12 07:39:36;;;;;;;0.88;0.47;;;15.50;72.00;;;;;;5114925;28;20351;-75
2022/05/12 07:42:04;;;;;;;1.10;0.60;;;15.50;71.70;;;;;;5114303;28;20083;-75
2022/05/12 07:44:34;;;;;;;0.73;0.70;;;15.60;71.60;;;;;;5079560;28;20040;-75
2022/05/12 07:47:03;;;;;;;0.73;0.60;;;15.70;71.60;;;;;;5113576;28;20485;-75
2022/05/12 07:49:32;;;;;;;0.88;0.68;;;15.80;71.40;;;;;;5114569;28;20039;-74
2022/05/12 07:51:59;;;;;;;1.10;0.50;;;16.00;71.30;;;;;;5114613;28;20043;-75
2022/05/12 07:54:25;;;;;;;0.70;0.52;;;16.20;71.00;;;;;;5114361;28;20056;-75
2022/05/12 07:56:51;;;;;;;1.27;0.80;;;16.10;70.70;;;;;;5113909;28;20035;-74
2022/05/12 07:59:17;;;;;;;0.88;0.60;;;16.40;70.70;;;;;;5114407;28;20089;-74
2022/05/12 08:01:44;;;;;;;1.45;0.60;;;16.40;70.60;;;;;;5095555;28;20132;-75
2022/05/12 08:04:10;;;;;;;0.90;0.60;;;16.50;70.50;;;;;;5114388;28;20066;-74
2022/05/12 08:06:36;;;;;;;0.98;0.50;;;16.60;70.40;;;;;;5113960;28;20035;-74
2022/05/12 08:09:02;;;;;;;0.75;0.50;;;16.70;70.00;;;;;;5113938;28;20036;-75
2022/05/12 08:11:28;;;;;;;1.65;0.70;;;16.70;70.00;;;;;;5096009;28;20050;-75
2022/05/12 08:13:54;;;;;;;0.80;0.77;;;16.70;69.90;;;;;;5095561;28;20044;-75
2022/05/12 08:16:21;;;;;;;0.85;0.70;;;16.60;70.00;;;;;;5095693;28;20396;-74
2022/05/12 08:18:49;;;;;;;0.57;0.57;;;16.50;70.50;;;;;;5113512;28;20059;-74
2022/05/12 08:21:15;;;;;;;1.77;0.70;;;16.60;70.60;;;;;;5096558;28;20108;-74
2022/05/12 08:23:41;;;;;;;0.50;0.50;;;16.80;70.40;;;;;;5114141;28;20040;-75
2022/05/12 08:26:08;;;;;;;0.75;0.50;;;17.10;70.00;;;;;;5096053;28;20055;-75
2022/05/12 08:28:33;;;;;;;1.02;0.75;;;17.20;69.30;;;;;;5114050;28;20032;-74
2022/05/12 08:30:59;;;;;;;1.02;0.60;;;17.50;68.90;;;;;;5070576;28;20148;-75
2022/05/12 08:33:25;;;;;;;1.15;0.65;;;17.50;68.60;;;;;;5054138;28;20056;-74
2022/05/12 08:35:51;;;;;;;1.10;0.70;;;17.60;68.40;;;;;;5054267;28;20044;-75
2022/05/12 08:38:19;;;;;;;0.60;0.60;;;17.80;68.20;;;;;;5070763;28;20052;-74
2022/05/12 08:41:04;;;;;;;2.15;0.77;;;18.00;68.10;;;;;;5054035;28;20484;-74
2022/05/12 08:43:51;;;;;;;1.27;0.90;;;18.00;67.70;;;;;;5071264;28;20055;-73
2022/05/12 08:46:23;;;;;;;1.45;0.85;;;18.20;67.40;;;;;;5070870;28;20048;-73
2022/05/12 08:48:56;;;;;;;0.70;0.70;;;18.30;67.10;;;;;;5054461;28;20048;-73
2022/05/12 08:51:22;;;;;;;2.38;0.50;;;18.20;67.00;;;;;;5054804;28;20041;-73
2022/05/12 08:53:59;;;;;;;1.73;0.60;;;18.40;67.10;;;;;;5070698;28;20086;-75
2022/05/12 08:56:26;;;;;;;0.60;0.60;;;18.60;66.80;;;;;;5070527;28;20046;-75
2022/05/12 08:58:55;;;;;;;0.60;0.50;;;18.90;66.40;;;;;;5070786;28;20123;-74
2022/05/12 09:01:28;;;;;;;0.95;0.60;;;19.00;65.80;;;;;;5064027;28;20051;-76
2022/05/12 09:04:14;;;;;;;1.38;0.80;;;19.10;65.60;;;;;;5113129;28;20059;-76
2022/05/12 09:07:15;;;;;;;0.47;0.47;;;19.10;65.50;;;;;;5111578;28;20083;-76
2022/05/12 09:09:47;;;;;;;;;;;19.20;65.70;;;;;;5111739;28;20054;-75
2022/05/12 09:12:35;;;;;;;0.63;0.50;;;19.10;65.70;;;;;;5113228;28;19994;-75
2022/05/12 09:15:09;;;;;;;1.33;0.60;;;18.80;66.10;;;;;;5111731;28;20048;-77
2022/05/12 09:17:56;;;;;;;1.08;0.50;;;18.80;66.50;;;;;;5112776;28;20052;-75
2022/05/12 09:20:23;;;;;;;2.42;0.55;;;18.80;66.40;;;;;;5112112;28;20039;-75
2022/05/12 09:22:49;;;;;;;1.08;0.60;;;19.00;66.10;;;;;;5113298;28;20040;-73
2022/05/12 09:25:33;;;;;;;1.45;0.70;;;19.00;65.90;;;;;;5094469;28;20038;-74
2022/05/12 09:28:12;;;;;;;0.50;0.50;;;18.90;65.80;;;;;;5093080;28;20047;-74
2022/05/12 09:30:38;;;;;;;0.77;0.50;;;18.90;66.10;;;;;;5112334;28;20093;-75
2022/05/12 09:33:05;;;;;;;1.75;0.70;;;19.10;66.40;;;;;;5112775;28;20112;-74
2022/05/12 09:35:31;;;;;;;1.25;0.68;;;19.20;65.30;;;;;;5094616;28;20052;-74
2022/05/12 09:37:57;;;;;;;0.40;0.40;;;19.30;64.90;;;;;;5113247;28;20043;-73
2022/05/12 09:40:34;;;;;;;1.38;0.60;;;19.30;64.80;;;;;;5094651;28;20079;-73
2022/05/12 09:43:17;;;;;;;1.38;0.73;;;19.30;64.50;;;;;;5078603;28;20554;-73
2022/05/12 09:45:58;;;;;;;0.40;0.40;;;19.30;64.50;;;;;;5079746;28;20043;-73
2022/05/12 09:48:27;;;;;;;1.55;0.50;;;19.20;64.70;;;;;;5094967;28;20035;-74
2022/05/12 09:50:53;;;;;;;0.70;0.50;;;19.30;65.10;;;;;;5094393;28;20047;-73
2022/05/12 09:53:30;;;;;;;0.65;0.50;;;19.40;64.40;;;;;;5095083;28;20486;-74
2022/05/12 09:56:00;;;;;;;0.40;0.30;;;19.40;64.20;;;;;;5112569;28;20563;-73
2022/05/12 09:58:36;;;;;;;0.30;0.30;;;19.50;64.00;;;;;;5112965;28;20063;-73
2022/05/12 10:01:20;;;;;;;0.50;0.50;;;19.70;63.30;;;;;;5112870;28;20285;-73
2022/05/12 10:09:18;;;;;;;0.40;0.40;;;19.90;62.30;;;;;;5095979;28;20512;-74
2022/05/12 10:12:19;;;;;;;0.75;0.40;;;20.00;62.10;;;;;;5115425;28;20126;-74
2022/05/12 10:14:48;;;;;;;;;;;20.10;61.80;;;;;;5098053;28;20036;-74
2022/05/12 10:17:29;;;;;;;0.35;0.35;;;20.20;61.70;;;;;;5115715;28;20313;-75
2022/05/12 10:20:04;;;;;;;1.30;0.40;;;20.20;61.40;;;;;;5097664;28;20071;-75
2022/05/12 10:22:38;;;;;;;0.68;0.40;;;20.20;61.50;;;;;;5097419;28;20042;-75
2022/05/12 10:25:30;;;;;;;0.85;0.40;;;20.20;61.10;;;;;;5113881;28;20035;-74
2022/05/12 10:28:25;;;;;;;1.65;0.50;;;20.20;60.80;;;;;;5115727;28;20426;-73
2022/05/12 10:31:01;;;;;;;1.40;0.30;;;20.20;60.80;;;;;;5080620;28;20405;-74
2022/05/12 10:33:45;;;;;;;0.82;0.43;;;20.40;60.60;;;;;;5096724;28;20157;-74
2022/05/12 10:36:29;;;;;;;0.90;0.50;;;20.50;60.20;;;;;;5114572;28;20065;-74
2022/05/12 10:39:07;;;;;;;0.93;0.40;;;20.50;59.60;;;;;;5096707;28;20047;-73
2022/05/12 10:41:46;;;;;;;0.80;0.40;;;20.50;59.80;;;;;;5113461;28;20108;-73
2022/05/12 10:44:24;;;;;;;1.80;0.45;;;20.50;59.50;;;;;;5114325;28;20039;-73
2022/05/12 10:46:58;;;;;;;0.28;0.28;;;20.50;59.30;;;;;;5098416;28;20040;-75
2022/05/12 10:49:39;;;;;;;0.52;0.20;;;20.50;59.40;;;;;;5114257;28;20448;-72
2022/05/12 10:52:41;;;;;;;0.30;0.30;;;20.50;59.10;;;;;;5115286;28;20075;-72
2022/05/12 10:55:20;;;;;;;0.45;0.35;;;20.50;58.90;;;;;;5115204;28;20043;-73
2022/05/12 10:57:58;;;;;;;0.30;0.30;;;20.40;59.00;;;;;;5115799;28;20047;-74
2022/05/12 11:00:49;;;;;;;1.90;0.40;;;20.40;59.10;;;;;;5115779;28;20070;-74
2022/05/12 11:03:24;;;;;;;0.30;0.30;;;20.30;59.00;;;;;;5114965;28;20047;-73
2022/05/12 11:05:55;;;;;;;1.05;0.38;;;20.30;59.00;;;;;;5098090;28;20036;-73
2022/05/12 11:08:41;;;;;;;0.30;0.30;;;20.60;58.70;;;;;;5097769;28;20120;-73
2022/05/12 11:11:13;;;;;;;1.13;0.40;;;20.70;58.30;;;;;;5113844;28;20110;-72
2022/05/12 11:13:48;;;;;;;0.38;0.38;;;20.80;58.00;;;;;;5115521;28;20043;-73
2022/05/12 11:16:17;;;;;;;0.30;0.30;;;20.80;58.00;;;;;;5114443;28;20122;-73
2022/05/12 11:18:57;;;;;;;1.38;0.52;;;20.80;57.80;;;;;;5097028;28;20044;-73
2022/05/12 11:21:29;;;;;;;0.40;0.30;;;20.80;57.60;;;;;;5112580;28;20048;-72
2022/05/12 11:24:10;;;;;;;0.68;0.30;;;20.80;57.80;;;;;;5097522;28;20038;-72
2022/05/12 11:27:01;;;;;;;0.20;0.20;;;20.80;57.60;;;;;;5096048;28;20081;-72
2022/05/12 11:29:52;;;;;;;1.00;0.30;;;20.80;57.40;;;;;;5097890;28;20048;-74
2022/05/12 11:32:28;;;;;;;0.50;0.20;;;20.70;57.40;;;;;;5114344;28;20056;-73
2022/05/12 11:35:01;;;;;;;0.20;0.20;;;20.80;57.60;;;;;;5096260;28;20035;-74
2022/05/12 11:37:32;;;;;;;0.30;0.30;;;20.80;57.20;;;;;;5114653;28;20031;-73
2022/05/12 11:40:00;;;;;;;0.22;0.20;;;20.80;56.90;;;;;;5114367;28;20079;-74
2022/05/12 11:44:23;;;;;;;0.30;0.30;;;20.80;57.00;;;;;;5114638;28;20507;-72
2022/05/12 11:45:37;;;;;;;0.28;0.28;;;21.00;56.90;;;;;;5113783;28;20065;-72
2022/05/12 11:48:33;;;;;;;0.75;0.30;;;20.90;56.60;;;;;;5095917;28;20032;-74
2022/05/12 11:51:20;;;;;;;0.57;0.30;;;21.00;56.60;;;;;;5112910;28;20088;-73
2022/05/12 11:54:02;;;;;;;0.10;0.10;;;21.10;56.40;;;;;;5113038;28;20043;-73
2022/05/12 11:56:48;;;;;;;0.43;0.20;;;21.20;56.00;;;;;;5112228;28;20101;-74
2022/05/12 11:59:24;;;;;;;0.15;0.13;;;21.30;55.90;;;;;;5112406;28;20074;-72
2022/05/12 12:01:57;;;;;;;0.25;0.20;;;21.30;55.90;;;;;;5113913;28;20066;-73
2022/05/12 12:04:46;;;;;;;0.20;0.20;;;21.20;55.80;;;;;;5114413;28;20388;-74
2022/05/12 12:07:25;;;;;;;0.40;0.35;;;21.20;55.60;;;;;;5115518;28;20055;-72
2022/05/12 12:09:54;;;;;;;0.70;0.30;;;21.30;55.40;;;;;;5114001;28;20063;-74
2022/05/12 12:12:56;;;;;;;0.20;0.20;;;21.30;55.30;;;;;;5096635;28;20496;-75
2022/05/12 12:15:43;;;;;;;1.55;0.35;;;21.30;55.30;;;;;;5098643;28;20039;-72
2022/05/12 12:18:45;;;;;;;0.57;0.40;;;21.20;55.30;;;;;;5095567;28;20154;-72
2022/05/12 12:21:46;;;;;;;0.47;0.30;;;21.10;55.40;;;;;;5114064;28;20056;-73
2022/05/12 12:24:31;;;;;;;1.13;0.43;;;21.20;55.30;;;;;;5098145;28;20546;-73
2022/05/12 12:27:18;;;;;;;0.57;0.30;;;21.10;55.00;;;;;;5078123;28;20110;-73
2022/05/12 12:29:47;;;;;;;0.63;0.30;;;20.90;55.00;;;;;;5095695;28;20122;-73
2022/05/12 12:32:27;;;;;;;1.30;0.40;;;20.80;55.10;;;;;;5114490;28;20032;-73
2022/05/12 12:34:56;;;;;;;1.15;0.52;;;20.60;54.90;;;;;;5094280;28;20051;-73
2022/05/12 12:37:40;;;;;;;0.70;0.40;;;20.70;55.20;;;;;;5095764;28;20069;-74
2022/05/12 12:40:37;;;;;;;0.40;0.30;;;20.70;54.90;;;;;;5113656;28;20082;-72
2022/05/12 12:43:27;;;;;;;1.17;0.40;;;20.80;54.70;;;;;;5111241;28;20040;-72
2022/05/12 12:45:53;;;;;;;0.40;0.40;;;20.80;54.50;;;;;;5113185;28;20093;-73
2022/05/12 12:48:28;;;;;;;0.32;0.30;;;20.80;54.50;;;;;;5113766;28;20027;-73
2022/05/12 12:50:57;;;;;;;0.30;0.30;;;20.70;54.50;;;;;;5112414;28;20044;-72
2022/05/12 12:56:36;;;;;;;1.23;0.40;;;20.80;54.50;;;;;;5113104;28;20121;-72
2022/05/12 12:59:17;;;;;;;0.80;0.40;;;20.70;54.40;;;;;;5113205;28;20043;-71
2022/05/12 13:01:50;;;;;;;0.85;0.43;;;20.60;54.40;;;;;;5113110;28;20047;-72
2022/05/12 13:04:23;;;;;;;0.90;0.50;;;20.50;54.60;;;;;;5096073;28;20039;-71
2022/05/12 13:06:54;;;;;;;0.35;0.32;;;20.40;54.40;;;;;;5094710;28;20046;-71
2022/05/12 13:09:26;;;;;;;0.40;0.40;;;20.40;54.40;;;;;;5076106;28;20032;-71
2022/05/12 13:12:15;;;;;;;0.75;0.40;;;20.50;54.30;;;;;;5093817;28;20564;-71
2022/05/12 13:14:43;;;;;;;0.40;0.30;;;20.40;54.00;;;;;;5094281;28;20123;-72
2022/05/12 13:17:18;;;;;;;0.40;0.40;;;20.50;54.00;;;;;;5077686;28;20043;-72
2022/05/12 13:19:45;;;;;;;0.73;0.50;;;20.50;53.60;;;;;;5113032;28;20043;-73
2022/05/12 13:22:22;;;;;;;0.50;0.50;;;20.50;53.60;;;;;;5112705;28;20040;-71
2022/05/12 13:24:48;;;;;;;0.68;0.38;;;20.60;53.50;;;;;;5094390;28;20041;-72